Flight Track Log - Related Links

Times and Time Zones

All times are in EDT time to prevent confusion due to time zone crossing. See the CTL18 flight status page for this flight to view local times or setup timezone preferences in your user account.

Time Position Orientation Groundspeed Altitude Reporting Facility
EDT Latitude Longitude Course Direction KTS MPH feet Rate Location/Type
Mon 07:11:26 PM 42.6622 -83.4406 268° West 98 113 1,400  Level Cleveland Center
Mon 07:12:27 PM 42.6614 -83.4831 268° West 110 127 2,200 744 Climbing Cleveland Center
Mon 07:13:27 PM 42.6581 -83.5308 265° West 126 145 2,900 744 Climbing Cleveland Center
Mon 07:14:28 PM 42.6611 -83.5761 275° West 120 138 3,700 541 Climbing Cleveland Center
Mon 07:15:29 PM 42.6658 -83.6272 277° West 146 168 4,000 94 Climbing Cleveland Center
Mon 07:16:36 PM 42.6706 -83.6839 276° West 135 155 3,900  Descending Cleveland Center
Mon 07:17:37 PM 42.6839 -83.7383 288° West 151 174 4,000 47 Climbing Cleveland Center
Mon 07:18:44 PM 42.6969 -83.7925 288° West 147 169 4,000  Level Cleveland Center
Mon 07:19:39 PM 42.7017 -83.8436 277° West 147 169 4,000  Level Cleveland Center
Mon 07:21:00 PM 42.7482 -83.8567 348° North  Level Estimated
Mon 07:28:00 PM 42.9894 -83.9246 348° North  Level Estimated
Mon 07:29:00 PM 43.0238 -83.9343 348° North  Level Estimated
Mon 07:30:00 PM 43.0583 -83.9441 348° North  Level Estimated
Mon 07:31:00 PM 43.0927 -83.9538 348° North  Level Estimated
Mon 07:32:00 PM 43.1272 -83.9636 348° North  Level Estimated
Mon 07:33:00 PM 43.1616 -83.9734 348° North  Level Estimated
Mon 07:34:00 PM 43.1961 -83.9832 348° North  Level Estimated
Mon 07:35:00 PM 43.2305 -83.9930 348° North  Level Estimated
Mon 07:36:00 PM 43.2650 -84.0028 348° North  Level Estimated
Mon 07:37:00 PM 43.2994 -84.0127 348° North  Level Estimated
Mon 07:38:00 PM 43.3338 -84.0225 348° North  Level Estimated
Mon 07:39:00 PM 43.3683 -84.0324 348° North  Level Estimated
Mon 07:40:00 PM 43.4027 -84.0422 348° North  Level Estimated
Mon 07:41:00 PM 43.4372 -84.0521 348° North  Level Estimated
Mon 07:42:00 PM 43.4716 -84.0620 348° North  Level Estimated
Mon 07:43:00 PM 43.5060 -84.0719 348° North  Level Estimated
Mon 07:44:00 PM 43.5329 -84.0796 348° North  Level Estimated

Login

Don't have an account? Register now (free) for customized features, flight alerts, and more!